sensor_id;sensor_type;location;lat;lon;timestamp;temperature;humidity
4725;DHT22;2376;53.544;10.226;2022-12-07T00:01:18;6.10;99.90
4725;DHT22;2376;53.544;10.226;2022-12-07T00:03:48;6.10;99.90
4725;DHT22;2376;53.544;10.226;2022-12-07T00:06:16;6.20;99.90
4725;DHT22;2376;53.544;10.226;2022-12-07T00:08:44;6.20;99.90
4725;DHT22;2376;53.544;10.226;2022-12-07T00:11:12;6.20;99.90
4725;DHT22;2376;53.544;10.226;2022-12-07T00:13:40;6.30;99.90
4725;DHT22;2376;53.544;10.226;2022-12-07T00:16:09;6.20;99.90
4725;DHT22;2376;53.544;10.226;2022-12-07T00:18:36;6.20;99.90
4725;DHT22;2376;53.544;10.226;2022-12-07T00:21:06;6.20;99.90
4725;DHT22;2376;53.544;10.226;2022-12-07T00:23:33;6.10;99.90
4725;DHT22;2376;53.544;10.226;2022-12-07T00:26:04;6.20;99.90
4725;DHT22;2376;53.544;10.226;2022-12-07T00:28:32;6.00;99.90
4725;DHT22;2376;53.544;10.226;2022-12-07T00:31:07;6.10;99.90
4725;DHT22;2376;53.544;10.226;2022-12-07T00:33:34;6.10;99.90
4725;DHT22;2376;53.544;10.226;2022-12-07T00:36:02;6.10;99.90
4725;DHT22;2376;53.544;10.226;2022-12-07T00:38:32;6.10;99.90
4725;DHT22;2376;53.544;10.226;2022-12-07T00:41:01;6.00;99.90
4725;DHT22;2376;53.544;10.226;2022-12-07T00:43:28;6.00;99.90
4725;DHT22;2376;53.544;10.226;2022-12-07T00:45:56;6.10;99.90
4725;DHT22;2376;53.544;10.226;2022-12-07T00:48:23;6.10;99.90
4725;DHT22;2376;53.544;10.226;2022-12-07T00:50:50;6.20;99.90
4725;DHT22;2376;53.544;10.226;2022-12-07T00:53:17;6.20;99.90
4725;DHT22;2376;53.544;10.226;2022-12-07T00:55:46;6.20;99.90
4725;DHT22;2376;53.544;10.226;2022-12-07T00:58:13;6.20;99.90
4725;DHT22;2376;53.544;10.226;2022-12-07T01:00:41;6.10;99.90
4725;DHT22;2376;53.544;10.226;2022-12-07T01:03:10;6.20;99.90
4725;DHT22;2376;53.544;10.226;2022-12-07T01:05:38;6.20;99.90
4725;DHT22;2376;53.544;10.226;2022-12-07T01:08:06;6.10;99.90
4725;DHT22;2376;53.544;10.226;2022-12-07T01:10:33;6.10;99.90
4725;DHT22;2376;53.544;10.226;2022-12-07T01:13:01;6.10;99.90
4725;DHT22;2376;53.544;10.226;2022-12-07T01:15:27;6.20;99.90
4725;DHT22;2376;53.544;10.226;2022-12-07T01:17:54;6.20;99.90
4725;DHT22;2376;53.544;10.226;2022-12-07T01:20:21;6.20;99.90
4725;DHT22;2376;53.544;10.226;2022-12-07T01:22:48;6.30;99.90
4725;DHT22;2376;53.544;10.226;2022-12-07T01:25:15;6.40;99.90
4725;DHT22;2376;53.544;10.226;2022-12-07T01:27:42;6.30;99.90
4725;DHT22;2376;53.544;10.226;2022-12-07T01:30:12;6.20;99.90
4725;DHT22;2376;53.544;10.226;2022-12-07T01:32:39;6.30;99.90
4725;DHT22;2376;53.544;10.226;2022-12-07T01:35:06;6.30;99.90
4725;DHT22;2376;53.544;10.226;2022-12-07T01:37:35;6.30;99.90
4725;DHT22;2376;53.544;10.226;2022-12-07T01:40:03;6.30;99.90
4725;DHT22;2376;53.544;10.226;2022-12-07T01:42:30;6.30;99.90
4725;DHT22;2376;53.544;10.226;2022-12-07T01:48:12;6.40;99.90
4725;DHT22;2376;53.544;10.226;2022-12-07T01:50:40;6.40;99.90
4725;DHT22;2376;53.544;10.226;2022-12-07T01:53:09;6.40;99.90
4725;DHT22;2376;53.544;10.226;2022-12-07T01:55:40;6.50;99.90
4725;DHT22;2376;53.544;10.226;2022-12-07T01:58:08;6.40;99.90
4725;DHT22;2376;53.544;10.226;2022-12-07T02:00:35;6.40;99.90
4725;DHT22;2376;53.544;10.226;2022-12-07T02:03:06;6.30;99.90
4725;DHT22;2376;53.544;10.226;2022-12-07T02:05:37;6.30;99.90
4725;DHT22;2376;53.544;10.226;2022-12-07T02:08:05;6.30;99.90
4725;DHT22;2376;53.544;10.226;2022-12-07T02:10:33;6.40;99.90
4725;DHT22;2376;53.544;10.226;2022-12-07T02:13:02;6.50;99.90
4725;DHT22;2376;53.544;10.226;2022-12-07T02:15:39;6.60;99.90
4725;DHT22;2376;53.544;10.226;2022-12-07T02:18:11;6.60;99.90
4725;DHT22;2376;53.544;10.226;2022-12-07T02:20:47;6.60;99.90
4725;DHT22;2376;53.544;10.226;2022-12-07T02:23:31;6.40;99.90
4725;DHT22;2376;53.544;10.226;2022-12-07T02:29:18;6.40;99.90
4725;DHT22;2376;53.544;10.226;2022-12-07T02:31:53;6.50;99.90
4725;DHT22;2376;53.544;10.226;2022-12-07T02:34:27;6.50;99.90
4725;DHT22;2376;53.544;10.226;2022-12-07T02:36:59;6.50;99.90
4725;DHT22;2376;53.544;10.226;2022-12-07T02:39:32;6.60;99.90
4725;DHT22;2376;53.544;10.226;2022-12-07T02:42:09;6.60;99.90
4725;DHT22;2376;53.544;10.226;2022-12-07T02:44:38;6.50;99.90
4725;DHT22;2376;53.544;10.226;2022-12-07T02:47:09;6.50;99.90
4725;DHT22;2376;53.544;10.226;2022-12-07T02:49:38;6.50;99.90
4725;DHT22;2376;53.544;10.226;2022-12-07T02:52:05;6.60;99.90
4725;DHT22;2376;53.544;10.226;2022-12-07T02:54:32;6.50;99.90
4725;DHT22;2376;53.544;10.226;2022-12-07T02:57:03;6.40;99.90
4725;DHT22;2376;53.544;10.226;2022-12-07T02:59:40;6.50;99.90
4725;DHT22;2376;53.544;10.226;2022-12-07T03:02:17;6.40;99.90
4725;DHT22;2376;53.544;10.226;2022-12-07T03:04:53;6.40;99.90
4725;DHT22;2376;53.544;10.226;2022-12-07T03:07:26;6.40;99.90
4725;DHT22;2376;53.544;10.226;2022-12-07T03:10:02;6.50;99.90
4725;DHT22;2376;53.544;10.226;2022-12-07T03:12:32;6.50;99.90
4725;DHT22;2376;53.544;10.226;2022-12-07T03:15:07;6.50;99.90
4725;DHT22;2376;53.544;10.226;2022-12-07T03:17:39;6.40;99.90
4725;DHT22;2376;53.544;10.226;2022-12-07T03:20:09;6.40;99.90
4725;DHT22;2376;53.544;10.226;2022-12-07T03:22:39;6.40;99.90
4725;DHT22;2376;53.544;10.226;2022-12-07T03:25:10;6.40;99.90
4725;DHT22;2376;53.544;10.226;2022-12-07T03:27:40;6.40;99.90
4725;DHT22;2376;53.544;10.226;2022-12-07T03:30:13;6.40;99.90
4725;DHT22;2376;53.544;10.226;2022-12-07T03:32:44;6.40;99.90
4725;DHT22;2376;53.544;10.226;2022-12-07T03:35:15;6.40;99.90
4725;DHT22;2376;53.544;10.226;2022-12-07T03:37:46;6.30;99.90
4725;DHT22;2376;53.544;10.226;2022-12-07T03:40:19;6.40;99.90
4725;DHT22;2376;53.544;10.226;2022-12-07T03:42:48;6.40;99.90
4725;DHT22;2376;53.544;10.226;2022-12-07T03:45:17;6.30;99.90
4725;DHT22;2376;53.544;10.226;2022-12-07T03:47:47;6.30;99.90
4725;DHT22;2376;53.544;10.226;2022-12-07T03:50:25;6.30;99.90
4725;DHT22;2376;53.544;10.226;2022-12-07T03:52:55;6.40;99.90
4725;DHT22;2376;53.544;10.226;2022-12-07T03:55:26;6.40;99.90
4725;DHT22;2376;53.544;10.226;2022-12-07T03:57:56;6.40;99.90
4725;DHT22;2376;53.544;10.226;2022-12-07T04:00:26;6.40;99.90
4725;DHT22;2376;53.544;10.226;2022-12-07T04:02:53;6.20;99.90
4725;DHT22;2376;53.544;10.226;2022-12-07T04:05:21;6.30;99.90
4725;DHT22;2376;53.544;10.226;2022-12-07T04:07:47;6.30;99.90
4725;DHT22;2376;53.544;10.226;2022-12-07T04:10:14;6.20;99.90
4725;DHT22;2376;53.544;10.226;2022-12-07T04:12:41;6.30;99.90
4725;DHT22;2376;53.544;10.226;2022-12-07T04:15:08;6.20;99.90
4725;DHT22;2376;53.544;10.226;2022-12-07T04:17:36;6.20;99.90
4725;DHT22;2376;53.544;10.226;2022-12-07T04:20:04;6.20;99.90
4725;DHT22;2376;53.544;10.226;2022-12-07T04:22:31;6.20;99.90
4725;DHT22;2376;53.544;10.226;2022-12-07T04:24:58;6.10;99.90
4725;DHT22;2376;53.544;10.226;2022-12-07T04:27:25;6.10;99.90
4725;DHT22;2376;53.544;10.226;2022-12-07T04:29:51;6.10;99.90
4725;DHT22;2376;53.544;10.226;2022-12-07T04:32:18;6.00;99.90
4725;DHT22;2376;53.544;10.226;2022-12-07T04:34:46;6.00;99.90
4725;DHT22;2376;53.544;10.226;2022-12-07T04:37:13;6.00;99.90
4725;DHT22;2376;53.544;10.226;2022-12-07T04:39:40;6.00;99.90
4725;DHT22;2376;53.544;10.226;2022-12-07T04:42:06;6.00;99.90
4725;DHT22;2376;53.544;10.226;2022-12-07T04:44:33;6.00;99.90
4725;DHT22;2376;53.544;10.226;2022-12-07T04:47:00;5.90;99.90
4725;DHT22;2376;53.544;10.226;2022-12-07T04:49:27;6.00;99.90
4725;DHT22;2376;53.544;10.226;2022-12-07T04:51:55;6.00;99.90
4725;DHT22;2376;53.544;10.226;2022-12-07T04:54:22;6.00;99.90
4725;DHT22;2376;53.544;10.226;2022-12-07T04:56:49;6.00;99.90
4725;DHT22;2376;53.544;10.226;2022-12-07T04:59:16;5.90;99.90
4725;DHT22;2376;53.544;10.226;2022-12-07T05:01:43;6.00;99.90
4725;DHT22;2376;53.544;10.226;2022-12-07T05:04:12;5.90;99.90
4725;DHT22;2376;53.544;10.226;2022-12-07T05:06:38;5.90;99.90
4725;DHT22;2376;53.544;10.226;2022-12-07T05:09:06;5.80;99.90
4725;DHT22;2376;53.544;10.226;2022-12-07T05:11:33;5.90;99.90
4725;DHT22;2376;53.544;10.226;2022-12-07T05:14:11;5.90;99.90
4725;DHT22;2376;53.544;10.226;2022-12-07T05:16:39;5.90;99.90
4725;DHT22;2376;53.544;10.226;2022-12-07T05:19:06;5.90;99.90
4725;DHT22;2376;53.544;10.226;2022-12-07T05:21:33;5.90;99.90
4725;DHT22;2376;53.544;10.226;2022-12-07T05:24:00;5.80;99.90
4725;DHT22;2376;53.544;10.226;2022-12-07T05:26:30;5.80;99.90
4725;DHT22;2376;53.544;10.226;2022-12-07T05:28:57;5.80;99.90
4725;DHT22;2376;53.544;10.226;2022-12-07T05:31:26;5.80;99.90
4725;DHT22;2376;53.544;10.226;2022-12-07T05:33:53;5.80;99.90
4725;DHT22;2376;53.544;10.226;2022-12-07T05:36:20;5.80;99.90
4725;DHT22;2376;53.544;10.226;2022-12-07T05:38:46;5.80;99.90
4725;DHT22;2376;53.544;10.226;2022-12-07T05:41:15;5.80;99.90
4725;DHT22;2376;53.544;10.226;2022-12-07T05:44:01;5.80;99.90
4725;DHT22;2376;53.544;10.226;2022-12-07T05:46:28;5.80;99.90
4725;DHT22;2376;53.544;10.226;2022-12-07T05:48:55;5.70;99.90
4725;DHT22;2376;53.544;10.226;2022-12-07T05:51:22;5.70;99.90
4725;DHT22;2376;53.544;10.226;2022-12-07T05:53:48;5.70;99.90
4725;DHT22;2376;53.544;10.226;2022-12-07T05:56:15;5.70;99.90
4725;DHT22;2376;53.544;10.226;2022-12-07T05:58:42;5.80;99.90
4725;DHT22;2376;53.544;10.226;2022-12-07T06:01:27;5.80;99.90
4725;DHT22;2376;53.544;10.226;2022-12-07T06:03:54;5.70;99.90
4725;DHT22;2376;53.544;10.226;2022-12-07T06:06:21;5.70;99.90
4725;DHT22;2376;53.544;10.226;2022-12-07T06:08:48;5.60;99.90
4725;DHT22;2376;53.544;10.226;2022-12-07T06:11:14;5.60;99.90
4725;DHT22;2376;53.544;10.226;2022-12-07T06:14:00;5.60;99.90
4725;DHT22;2376;53.544;10.226;2022-12-07T06:16:28;5.60;99.90
4725;DHT22;2376;53.544;10.226;2022-12-07T06:18:55;5.60;99.90
4725;DHT22;2376;53.544;10.226;2022-12-07T06:21:22;5.60;99.90
4725;DHT22;2376;53.544;10.226;2022-12-07T06:23:51;5.60;99.90
4725;DHT22;2376;53.544;10.226;2022-12-07T06:26:17;5.60;99.90
4725;DHT22;2376;53.544;10.226;2022-12-07T06:28:44;5.60;99.90
4725;DHT22;2376;53.544;10.226;2022-12-07T06:31:11;5.60;99.90
4725;DHT22;2376;53.544;10.226;2022-12-07T06:33:39;5.60;99.90
4725;DHT22;2376;53.544;10.226;2022-12-07T06:36:07;5.50;99.90
4725;DHT22;2376;53.544;10.226;2022-12-07T06:38:34;5.50;99.90
4725;DHT22;2376;53.544;10.226;2022-12-07T06:41:00;5.50;99.90
4725;DHT22;2376;53.544;10.226;2022-12-07T06:43:27;5.50;99.90
4725;DHT22;2376;53.544;10.226;2022-12-07T06:45:54;5.40;99.90
4725;DHT22;2376;53.544;10.226;2022-12-07T06:48:21;5.40;99.90
4725;DHT22;2376;53.544;10.226;2022-12-07T06:50:49;5.40;99.90
4725;DHT22;2376;53.544;10.226;2022-12-07T06:53:15;5.40;99.90
4725;DHT22;2376;53.544;10.226;2022-12-07T06:55:42;5.40;99.90
4725;DHT22;2376;53.544;10.226;2022-12-07T06:58:09;5.30;99.90
4725;DHT22;2376;53.544;10.226;2022-12-07T07:00:36;5.30;99.90
4725;DHT22;2376;53.544;10.226;2022-12-07T07:03:02;5.30;99.90
4725;DHT22;2376;53.544;10.226;2022-12-07T07:05:30;5.30;99.90
4725;DHT22;2376;53.544;10.226;2022-12-07T07:07:59;5.30;99.90
4725;DHT22;2376;53.544;10.226;2022-12-07T07:10:25;5.30;99.90
4725;DHT22;2376;53.544;10.226;2022-12-07T07:12:52;5.30;99.90
4725;DHT22;2376;53.544;10.226;2022-12-07T07:15:19;5.30;99.90
4725;DHT22;2376;53.544;10.226;2022-12-07T07:17:45;5.30;99.90
4725;DHT22;2376;53.544;10.226;2022-12-07T07:20:12;5.30;99.90
4725;DHT22;2376;53.544;10.226;2022-12-07T07:22:39;5.30;99.90
4725;DHT22;2376;53.544;10.226;2022-12-07T07:25:08;5.40;99.90
4725;DHT22;2376;53.544;10.226;2022-12-07T07:27:34;5.40;99.90
4725;DHT22;2376;53.544;10.226;2022-12-07T07:30:01;5.40;99.90
4725;DHT22;2376;53.544;10.226;2022-12-07T07:32:28;5.40;99.90
4725;DHT22;2376;53.544;10.226;2022-12-07T07:34:55;5.40;99.90
4725;DHT22;2376;53.544;10.226;2022-12-07T07:37:21;5.40;99.90
4725;DHT22;2376;53.544;10.226;2022-12-07T07:39:48;5.40;99.90
4725;DHT22;2376;53.544;10.226;2022-12-07T07:42:16;5.40;99.90
4725;DHT22;2376;53.544;10.226;2022-12-07T07:44:43;5.40;99.90
4725;DHT22;2376;53.544;10.226;2022-12-07T07:47:11;5.40;99.90
4725;DHT22;2376;53.544;10.226;2022-12-07T07:49:38;5.40;99.90
4725;DHT22;2376;53.544;10.226;2022-12-07T07:52:05;5.40;99.90
4725;DHT22;2376;53.544;10.226;2022-12-07T07:54:32;5.40;99.90
4725;DHT22;2376;53.544;10.226;2022-12-07T07:56:59;5.40;99.90
4725;DHT22;2376;53.544;10.226;2022-12-07T07:59:27;5.40;99.90
4725;DHT22;2376;53.544;10.226;2022-12-07T08:01:53;5.40;99.90
4725;DHT22;2376;53.544;10.226;2022-12-07T08:04:20;5.50;99.90
4725;DHT22;2376;53.544;10.226;2022-12-07T08:06:47;5.50;99.90
4725;DHT22;2376;53.544;10.226;2022-12-07T08:09:13;5.50;99.90
4725;DHT22;2376;53.544;10.226;2022-12-07T08:11:40;5.60;99.90
4725;DHT22;2376;53.544;10.226;2022-12-07T08:14:07;5.60;99.90
4725;DHT22;2376;53.544;10.226;2022-12-07T08:16:35;5.70;99.90
4725;DHT22;2376;53.544;10.226;2022-12-07T08:19:01;5.70;99.90
4725;DHT22;2376;53.544;10.226;2022-12-07T08:21:30;5.70;99.90
4725;DHT22;2376;53.544;10.226;2022-12-07T08:23:57;5.70;99.90
4725;DHT22;2376;53.544;10.226;2022-12-07T08:26:24;5.60;99.90
4725;DHT22;2376;53.544;10.226;2022-12-07T08:28:52;5.60;99.90
4725;DHT22;2376;53.544;10.226;2022-12-07T08:31:19;5.60;99.90
4725;DHT22;2376;53.544;10.226;2022-12-07T08:33:48;5.60;99.90
4725;DHT22;2376;53.544;10.226;2022-12-07T08:36:15;5.70;99.90
4725;DHT22;2376;53.544;10.226;2022-12-07T08:38:42;5.70;99.90
4725;DHT22;2376;53.544;10.226;2022-12-07T08:41:09;5.70;99.90
4725;DHT22;2376;53.544;10.226;2022-12-07T08:43:36;5.70;99.90
4725;DHT22;2376;53.544;10.226;2022-12-07T08:46:10;5.70;99.90
4725;DHT22;2376;53.544;10.226;2022-12-07T08:48:40;5.70;99.90
4725;DHT22;2376;53.544;10.226;2022-12-07T08:51:08;5.80;99.90
4725;DHT22;2376;53.544;10.226;2022-12-07T08:53:37;5.80;99.90
4725;DHT22;2376;53.544;10.226;2022-12-07T08:56:05;5.80;99.90
4725;DHT22;2376;53.544;10.226;2022-12-07T08:58:34;5.80;99.90
4725;DHT22;2376;53.544;10.226;2022-12-07T09:01:02;5.70;99.90
4725;DHT22;2376;53.544;10.226;2022-12-07T09:03:29;5.70;99.90
4725;DHT22;2376;53.544;10.226;2022-12-07T09:05:55;5.80;99.90
4725;DHT22;2376;53.544;10.226;2022-12-07T09:08:28;5.80;99.90
4725;DHT22;2376;53.544;10.226;2022-12-07T09:10:56;5.80;99.90
4725;DHT22;2376;53.544;10.226;2022-12-07T09:13:22;5.90;99.90
4725;DHT22;2376;53.544;10.226;2022-12-07T09:15:49;5.90;99.90
4725;DHT22;2376;53.544;10.226;2022-12-07T09:18:16;5.90;99.90
4725;DHT22;2376;53.544;10.226;2022-12-07T09:20:42;6.00;99.90
4725;DHT22;2376;53.544;10.226;2022-12-07T09:23:09;6.00;99.90
4725;DHT22;2376;53.544;10.226;2022-12-07T09:25:37;5.90;99.90
4725;DHT22;2376;53.544;10.226;2022-12-07T09:28:04;5.90;99.90
4725;DHT22;2376;53.544;10.226;2022-12-07T09:30:31;6.00;99.90
4725;DHT22;2376;53.544;10.226;2022-12-07T09:32:58;6.00;99.90
4725;DHT22;2376;53.544;10.226;2022-12-07T09:35:25;6.00;99.90
4725;DHT22;2376;53.544;10.226;2022-12-07T09:37:52;6.10;99.90
4725;DHT22;2376;53.544;10.226;2022-12-07T09:40:21;6.10;99.90
4725;DHT22;2376;53.544;10.226;2022-12-07T09:42:52;6.20;99.90
4725;DHT22;2376;53.544;10.226;2022-12-07T09:45:22;6.20;99.90
4725;DHT22;2376;53.544;10.226;2022-12-07T09:47:49;6.30;99.90
4725;DHT22;2376;53.544;10.226;2022-12-07T09:50:19;6.30;99.90
4725;DHT22;2376;53.544;10.226;2022-12-07T09:52:47;6.20;99.90
4725;DHT22;2376;53.544;10.226;2022-12-07T09:55:17;6.30;99.90
4725;DHT22;2376;53.544;10.226;2022-12-07T09:57:46;6.30;99.90
4725;DHT22;2376;53.544;10.226;2022-12-07T10:00:18;6.30;99.90
4725;DHT22;2376;53.544;10.226;2022-12-07T10:02:47;6.30;99.90
4725;DHT22;2376;53.544;10.226;2022-12-07T10:05:18;6.40;99.90
4725;DHT22;2376;53.544;10.226;2022-12-07T10:07:47;6.40;99.90
4725;DHT22;2376;53.544;10.226;2022-12-07T10:10:15;6.40;99.90
4725;DHT22;2376;53.544;10.226;2022-12-07T10:12:56;6.40;99.90
4725;DHT22;2376;53.544;10.226;2022-12-07T10:15:41;6.40;99.90
4725;DHT22;2376;53.544;10.226;2022-12-07T10:18:19;6.50;99.90
4725;DHT22;2376;53.544;10.226;2022-12-07T10:20:47;6.50;99.90
4725;DHT22;2376;53.544;10.226;2022-12-07T10:23:16;6.60;99.90
4725;DHT22;2376;53.544;10.226;2022-12-07T10:25:44;6.60;99.90
4725;DHT22;2376;53.544;10.226;2022-12-07T10:28:14;6.60;99.90
4725;DHT22;2376;53.544;10.226;2022-12-07T10:30:51;6.60;99.90
4725;DHT22;2376;53.544;10.226;2022-12-07T10:33:29;6.70;99.90
4725;DHT22;2376;53.544;10.226;2022-12-07T10:35:56;6.70;99.90
4725;DHT22;2376;53.544;10.226;2022-12-07T10:38:24;6.70;99.90
4725;DHT22;2376;53.544;10.226;2022-12-07T10:41:03;6.70;99.90
4725;DHT22;2376;53.544;10.226;2022-12-07T10:43:30;6.80;99.90
4725;DHT22;2376;53.544;10.226;2022-12-07T10:49:12;6.80;99.90
4725;DHT22;2376;53.544;10.226;2022-12-07T10:51:45;6.80;99.90
4725;DHT22;2376;53.544;10.226;2022-12-07T10:54:19;6.80;99.90
4725;DHT22;2376;53.544;10.226;2022-12-07T10:57:04;6.70;99.90
4725;DHT22;2376;53.544;10.226;2022-12-07T10:59:49;6.80;99.90
4725;DHT22;2376;53.544;10.226;2022-12-07T11:02:32;6.80;99.90
4725;DHT22;2376;53.544;10.226;2022-12-07T11:05:14;6.90;99.90
4725;DHT22;2376;53.544;10.226;2022-12-07T11:07:50;6.90;99.90
4725;DHT22;2376;53.544;10.226;2022-12-07T11:10:26;7.00;99.90
4725;DHT22;2376;53.544;10.226;2022-12-07T11:13:33;7.00;99.90
4725;DHT22;2376;53.544;10.226;2022-12-07T11:16:24;7.10;99.90
4725;DHT22;2376;53.544;10.226;2022-12-07T11:21:56;7.10;99.90
4725;DHT22;2376;53.544;10.226;2022-12-07T11:24:35;7.30;99.90
4725;DHT22;2376;53.544;10.226;2022-12-07T11:27:18;7.40;99.90
4725;DHT22;2376;53.544;10.226;2022-12-07T11:29:59;7.40;99.90
4725;DHT22;2376;53.544;10.226;2022-12-07T11:32:53;7.40;99.90
4725;DHT22;2376;53.544;10.226;2022-12-07T11:35:57;7.40;99.90
4725;DHT22;2376;53.544;10.226;2022-12-07T11:38:37;7.30;99.90
4725;DHT22;2376;53.544;10.226;2022-12-07T11:41:10;7.40;99.90
4725;DHT22;2376;53.544;10.226;2022-12-07T11:44:02;7.40;99.90
4725;DHT22;2376;53.544;10.226;2022-12-07T11:46:43;7.20;99.90
4725;DHT22;2376;53.544;10.226;2022-12-07T11:49:34;7.10;99.90
4725;DHT22;2376;53.544;10.226;2022-12-07T11:52:18;7.10;99.90
4725;DHT22;2376;53.544;10.226;2022-12-07T11:54:58;7.30;99.90
4725;DHT22;2376;53.544;10.226;2022-12-07T11:57:35;7.20;99.90
4725;DHT22;2376;53.544;10.226;2022-12-07T12:00:23;7.30;99.90
4725;DHT22;2376;53.544;10.226;2022-12-07T12:02:56;7.40;99.90
4725;DHT22;2376;53.544;10.226;2022-12-07T12:05:30;7.40;99.90
4725;DHT22;2376;53.544;10.226;2022-12-07T12:11:11;7.40;99.90
4725;DHT22;2376;53.544;10.226;2022-12-07T12:14:01;7.30;99.90
4725;DHT22;2376;53.544;10.226;2022-12-07T12:16:49;7.30;99.90
4725;DHT22;2376;53.544;10.226;2022-12-07T12:19:28;7.30;99.90
4725;DHT22;2376;53.544;10.226;2022-12-07T12:22:12;7.40;99.90
4725;DHT22;2376;53.544;10.226;2022-12-07T12:24:40;7.40;99.90
4725;DHT22;2376;53.544;10.226;2022-12-07T12:27:18;7.50;99.90
4725;DHT22;2376;53.544;10.226;2022-12-07T12:29:52;7.50;99.90
4725;DHT22;2376;53.544;10.226;2022-12-07T12:32:21;7.50;99.90
4725;DHT22;2376;53.544;10.226;2022-12-07T12:35:01;7.50;99.90
4725;DHT22;2376;53.544;10.226;2022-12-07T12:37:39;7.40;99.90
4725;DHT22;2376;53.544;10.226;2022-12-07T12:40:38;7.30;99.90
4725;DHT22;2376;53.544;10.226;2022-12-07T12:43:49;7.30;99.90
4725;DHT22;2376;53.544;10.226;2022-12-07T12:46:51;7.40;99.90
4725;DHT22;2376;53.544;10.226;2022-12-07T12:49:37;7.40;99.90
4725;DHT22;2376;53.544;10.226;2022-12-07T12:55:27;7.60;99.90
4725;DHT22;2376;53.544;10.226;2022-12-07T12:58:32;7.60;99.90
4725;DHT22;2376;53.544;10.226;2022-12-07T13:04:37;7.50;99.90
4725;DHT22;2376;53.544;10.226;2022-12-07T13:07:10;7.60;99.90
4725;DHT22;2376;53.544;10.226;2022-12-07T13:09:42;7.70;99.90
4725;DHT22;2376;53.544;10.226;2022-12-07T13:12:13;7.70;99.90
4725;DHT22;2376;53.544;10.226;2022-12-07T13:14:54;7.70;99.90
4725;DHT22;2376;53.544;10.226;2022-12-07T13:17:56;7.70;99.90
4725;DHT22;2376;53.544;10.226;2022-12-07T13:20:55;7.80;99.90
4725;DHT22;2376;53.544;10.226;2022-12-07T13:23:27;7.60;99.90
4725;DHT22;2376;53.544;10.226;2022-12-07T13:26:01;7.50;99.90
4725;DHT22;2376;53.544;10.226;2022-12-07T13:28:35;7.50;99.90
4725;DHT22;2376;53.544;10.226;2022-12-07T13:31:16;7.50;99.90
4725;DHT22;2376;53.544;10.226;2022-12-07T13:33:46;7.40;99.90
4725;DHT22;2376;53.544;10.226;2022-12-07T13:36:19;7.50;99.90
4725;DHT22;2376;53.544;10.226;2022-12-07T13:38:54;7.50;99.90
4725;DHT22;2376;53.544;10.226;2022-12-07T13:41:22;7.60;99.90
4725;DHT22;2376;53.544;10.226;2022-12-07T13:43:52;7.70;99.90
4725;DHT22;2376;53.544;10.226;2022-12-07T13:46:25;7.70;99.90
4725;DHT22;2376;53.544;10.226;2022-12-07T13:48:53;7.70;99.90
4725;DHT22;2376;53.544;10.226;2022-12-07T13:51:23;7.80;99.90
4725;DHT22;2376;53.544;10.226;2022-12-07T13:53:52;7.60;99.90
4725;DHT22;2376;53.544;10.226;2022-12-07T13:56:21;7.50;99.90
4725;DHT22;2376;53.544;10.226;2022-12-07T13:58:48;7.40;99.90
4725;DHT22;2376;53.544;10.226;2022-12-07T14:01:15;7.50;99.90
4725;DHT22;2376;53.544;10.226;2022-12-07T14:03:44;7.40;99.90
4725;DHT22;2376;53.544;10.226;2022-12-07T14:06:23;7.30;99.90
4725;DHT22;2376;53.544;10.226;2022-12-07T14:09:09;7.40;99.90
4725;DHT22;2376;53.544;10.226;2022-12-07T14:11:43;7.40;99.90
4725;DHT22;2376;53.544;10.226;2022-12-07T14:14:15;7.30;99.90
4725;DHT22;2376;53.544;10.226;2022-12-07T14:16:43;7.20;99.90
4725;DHT22;2376;53.544;10.226;2022-12-07T14:22:20;7.10;99.90
4725;DHT22;2376;53.544;10.226;2022-12-07T14:24:48;7.20;99.90
4725;DHT22;2376;53.544;10.226;2022-12-07T14:27:19;7.30;99.90
4725;DHT22;2376;53.544;10.226;2022-12-07T14:29:46;7.30;99.90
4725;DHT22;2376;53.544;10.226;2022-12-07T14:32:21;7.30;99.90
4725;DHT22;2376;53.544;10.226;2022-12-07T14:34:54;7.30;99.90
4725;DHT22;2376;53.544;10.226;2022-12-07T14:37:23;7.40;99.90
4725;DHT22;2376;53.544;10.226;2022-12-07T14:39:49;7.40;99.90
4725;DHT22;2376;53.544;10.226;2022-12-07T14:42:16;7.30;99.90
4725;DHT22;2376;53.544;10.226;2022-12-07T14:44:43;7.30;99.90
4725;DHT22;2376;53.544;10.226;2022-12-07T14:47:10;7.30;99.90
4725;DHT22;2376;53.544;10.226;2022-12-07T14:49:37;7.40;99.90
4725;DHT22;2376;53.544;10.226;2022-12-07T14:52:05;7.30;99.90
4725;DHT22;2376;53.544;10.226;2022-12-07T14:54:33;7.20;99.90
4725;DHT22;2376;53.544;10.226;2022-12-07T14:57:00;7.20;99.90
4725;DHT22;2376;53.544;10.226;2022-12-07T14:59:27;7.10;99.90
4725;DHT22;2376;53.544;10.226;2022-12-07T15:01:54;6.90;99.90
4725;DHT22;2376;53.544;10.226;2022-12-07T15:04:20;6.80;99.90
4725;DHT22;2376;53.544;10.226;2022-12-07T15:06:55;6.80;99.90
4725;DHT22;2376;53.544;10.226;2022-12-07T15:09:22;6.80;99.90
4725;DHT22;2376;53.544;10.226;2022-12-07T15:11:50;6.80;99.90
4725;DHT22;2376;53.544;10.226;2022-12-07T15:14:17;6.80;99.90
4725;DHT22;2376;53.544;10.226;2022-12-07T15:16:44;6.70;99.90
4725;DHT22;2376;53.544;10.226;2022-12-07T15:19:13;6.70;99.90
4725;DHT22;2376;53.544;10.226;2022-12-07T15:21:40;6.70;99.90
4725;DHT22;2376;53.544;10.226;2022-12-07T15:24:08;6.70;99.90
4725;DHT22;2376;53.544;10.226;2022-12-07T15:26:35;6.70;99.90
4725;DHT22;2376;53.544;10.226;2022-12-07T15:29:03;6.70;99.90
4725;DHT22;2376;53.544;10.226;2022-12-07T15:31:30;6.60;99.90
4725;DHT22;2376;53.544;10.226;2022-12-07T15:33:57;6.70;99.90
4725;DHT22;2376;53.544;10.226;2022-12-07T15:36:25;6.60;99.90
4725;DHT22;2376;53.544;10.226;2022-12-07T15:38:53;6.50;99.90
4725;DHT22;2376;53.544;10.226;2022-12-07T15:41:20;6.50;99.90
4725;DHT22;2376;53.544;10.226;2022-12-07T15:43:47;6.50;99.90
4725;DHT22;2376;53.544;10.226;2022-12-07T15:46:34;6.50;99.90
4725;DHT22;2376;53.544;10.226;2022-12-07T15:49:02;6.50;99.90
4725;DHT22;2376;53.544;10.226;2022-12-07T15:51:29;6.40;99.90
4725;DHT22;2376;53.544;10.226;2022-12-07T15:53:57;6.40;99.90
4725;DHT22;2376;53.544;10.226;2022-12-07T15:56:24;6.40;99.90
4725;DHT22;2376;53.544;10.226;2022-12-07T15:58:50;6.40;99.90
4725;DHT22;2376;53.544;10.226;2022-12-07T16:01:18;6.40;99.90
4725;DHT22;2376;53.544;10.226;2022-12-07T16:03:47;6.30;99.90
4725;DHT22;2376;53.544;10.226;2022-12-07T16:06:16;6.30;99.90
4725;DHT22;2376;53.544;10.226;2022-12-07T16:08:43;6.30;99.90
4725;DHT22;2376;53.544;10.226;2022-12-07T16:11:10;6.20;99.90
4725;DHT22;2376;53.544;10.226;2022-12-07T16:13:37;6.20;99.90
4725;DHT22;2376;53.544;10.226;2022-12-07T16:16:06;6.20;99.90
4725;DHT22;2376;53.544;10.226;2022-12-07T16:18:33;6.20;99.90
4725;DHT22;2376;53.544;10.226;2022-12-07T16:21:01;6.10;99.90
4725;DHT22;2376;53.544;10.226;2022-12-07T16:23:28;6.10;99.90
4725;DHT22;2376;53.544;10.226;2022-12-07T16:25:54;6.10;99.90
4725;DHT22;2376;53.544;10.226;2022-12-07T16:28:21;6.10;99.90
4725;DHT22;2376;53.544;10.226;2022-12-07T16:30:48;6.10;99.90
4725;DHT22;2376;53.544;10.226;2022-12-07T16:33:15;6.00;99.90
4725;DHT22;2376;53.544;10.226;2022-12-07T16:35:41;6.00;99.90
4725;DHT22;2376;53.544;10.226;2022-12-07T16:38:10;6.00;99.90
4725;DHT22;2376;53.544;10.226;2022-12-07T16:40:37;6.00;99.90
4725;DHT22;2376;53.544;10.226;2022-12-07T16:43:03;5.90;99.90
4725;DHT22;2376;53.544;10.226;2022-12-07T16:45:30;6.00;99.90
4725;DHT22;2376;53.544;10.226;2022-12-07T16:47:57;5.90;99.90
4725;DHT22;2376;53.544;10.226;2022-12-07T16:50:23;5.90;99.90